createdAt,value
2022-10-11T00:01:56.752Z,85.30
2022-10-11T00:04:23.554Z,85.39
2022-10-11T00:06:50.424Z,85.46
2022-10-11T00:09:18.917Z,85.80
2022-10-11T00:14:46.319Z,85.52
2022-10-11T00:17:16.950Z,85.58
2022-10-11T00:19:45.793Z,85.51
2022-10-11T00:25:27.849Z,85.58
2022-10-11T00:27:57.628Z,85.91
2022-10-11T00:31:18.223Z,85.73
2022-10-11T00:40:28.076Z,85.63
2022-10-11T00:43:27.471Z,85.66
2022-10-11T00:46:08.485Z,85.71
2022-10-11T00:52:50.055Z,85.66
2022-10-11T00:55:49.529Z,85.51
2022-10-11T00:58:46.917Z,85.47
2022-10-11T01:01:49.572Z,85.22
2022-10-11T01:05:11.323Z,84.96
2022-10-11T01:09:25.417Z,85.07
2022-10-11T01:12:04.181Z,85.38
2022-10-11T01:15:33.106Z,85.44
2022-10-11T01:19:03.068Z,85.17
2022-10-11T01:28:48.881Z,84.19
2022-10-11T01:32:21.841Z,84.60
2022-10-11T01:45:11.832Z,84.61
2022-10-11T01:55:17.916Z,84.40
2022-10-11T01:58:12.262Z,84.55
2022-10-11T02:05:04.723Z,84.72
2022-10-11T02:08:30.720Z,84.97
2022-10-11T02:14:45.509Z,85.01
2022-10-11T02:24:00.529Z,85.18
2022-10-11T02:32:01.459Z,85.28
2022-10-11T02:37:47.468Z,85.45
2022-10-11T02:40:46.524Z,85.59
2022-10-11T02:46:46.679Z,85.44
2022-10-11T02:50:04.284Z,84.87
2022-10-11T03:19:11.773Z,85.14
2022-10-11T03:26:34.794Z,85.06
2022-10-11T03:28:30.550Z,85.54
2022-10-11T03:31:33.211Z,85.52
2022-10-11T03:34:08.377Z,85.82
2022-10-11T03:36:40.524Z,85.31
2022-10-11T03:48:46.579Z,85.66
2022-10-11T03:55:13.803Z,85.78
2022-10-11T04:04:24.344Z,85.18
2022-10-11T04:16:36.114Z,85.17
2022-10-11T04:19:32.071Z,84.57
2022-10-11T04:24:39.247Z,84.07
2022-10-11T04:33:42.781Z,84.59
2022-10-11T04:36:07.352Z,84.59
2022-10-11T04:41:19.869Z,84.34
2022-10-11T04:43:47.362Z,84.61
2022-10-11T04:46:39.184Z,84.80
2022-10-11T04:49:05.048Z,85.20
2022-10-11T04:51:33.805Z,84.48
2022-10-11T04:54:02.597Z,84.56
2022-10-11T04:56:30.666Z,84.81
2022-10-11T04:59:24.532Z,84.94
2022-10-11T05:01:50.255Z,84.62
2022-10-11T05:04:17.007Z,84.82
2022-10-11T05:06:43.789Z,84.90
2022-10-11T05:09:10.694Z,85.35
2022-10-11T05:11:41.957Z,85.44
2022-10-11T05:14:11.223Z,85.18
2022-10-11T05:16:42.921Z,85.28
2022-10-11T05:19:57.883Z,85.26
2022-10-11T05:22:28.427Z,85.37
2022-10-11T05:28:46.713Z,85.32
2022-10-11T05:31:41.473Z,84.98
2022-10-11T05:34:09.484Z,85.33
2022-10-11T05:36:38.906Z,85.09
2022-10-11T05:39:05.972Z,85.09
2022-10-11T05:41:51.875Z,84.80
2022-10-11T05:44:18.653Z,84.89
2022-10-11T05:46:47.035Z,84.62
2022-10-11T05:49:13.666Z,84.62
2022-10-11T05:51:45.802Z,84.77
2022-10-11T05:54:12.622Z,85.39
2022-10-11T05:56:39.256Z,85.19
2022-10-11T05:59:57.195Z,84.84
2022-10-11T06:01:57.741Z,84.42
2022-10-11T06:10:52.232Z,84.93
2022-10-11T06:13:18.706Z,84.44
2022-10-11T06:15:45.202Z,84.16
2022-10-11T06:18:11.681Z,84.31
2022-10-11T06:20:38.206Z,84.56
2022-10-11T06:23:04.675Z,84.40
2022-10-11T06:25:31.143Z,84.46
2022-10-11T06:27:57.647Z,85.25
2022-10-11T06:30:24.325Z,84.79
2022-10-11T06:32:50.900Z,85.12
2022-10-11T06:35:17.525Z,84.84
2022-10-11T06:37:44.071Z,85.28
2022-10-11T06:40:11.124Z,85.82
2022-10-11T06:42:37.816Z,85.51
2022-10-11T06:45:04.776Z,85.22
2022-10-11T06:47:32.287Z,85.40
2022-10-11T06:49:58.857Z,85.77
2022-10-11T06:52:25.338Z,85.74
2022-10-11T06:54:51.778Z,85.94
2022-10-11T06:57:18.310Z,85.99
2022-10-11T06:59:44.826Z,85.91
2022-10-11T07:02:11.349Z,86.02
2022-10-11T07:04:37.853Z,85.92
2022-10-11T07:07:04.757Z,86.01
2022-10-11T07:09:31.462Z,86.42
2022-10-11T07:11:57.980Z,86.22
2022-10-11T07:14:24.497Z,86.46
2022-10-11T07:16:51.036Z,86.61
2022-10-11T07:19:17.520Z,86.98
2022-10-11T07:21:44.075Z,86.86
2022-10-11T07:24:10.577Z,86.75
2022-10-11T07:26:38.907Z,86.77
2022-10-11T07:29:07.526Z,86.96
2022-10-11T07:31:34.364Z,86.98
2022-10-11T07:34:00.933Z,86.99
2022-10-11T07:36:27.442Z,87.58
2022-10-11T07:38:54.127Z,87.18
2022-10-11T07:41:21.293Z,87.37
2022-10-11T07:43:49.895Z,87.39
2022-10-11T07:46:18.336Z,87.38
2022-10-11T07:48:45.032Z,87.94
2022-10-11T07:51:15.901Z,87.66
2022-10-11T07:53:45.797Z,87.75
2022-10-11T07:56:14.147Z,87.73
2022-10-11T07:58:41.942Z,87.93
2022-10-11T08:01:09.603Z,88.06
2022-10-11T08:03:37.723Z,87.93
2022-10-11T08:06:07.790Z,88.28
2022-10-11T08:08:34.955Z,88.01
2022-10-11T08:11:01.594Z,88.21
2022-10-11T08:13:28.278Z,88.50
2022-10-11T08:15:54.971Z,88.78
2022-10-11T08:18:21.559Z,88.49
2022-10-11T08:20:48.163Z,88.92
2022-10-11T08:23:16.714Z,89.01
2022-10-11T08:25:45.219Z,89.30
2022-10-11T08:28:17.942Z,89.33
2022-10-11T08:30:50.632Z,89.45
2022-10-11T08:33:18.397Z,89.46
2022-10-11T08:35:45.178Z,89.37
2022-10-11T08:38:12.977Z,89.27
2022-10-11T08:40:52.151Z,89.34
2022-10-11T08:43:32.884Z,89.74
2022-10-11T08:46:02.941Z,89.46
2022-10-11T08:48:36.459Z,89.71
2022-10-11T08:51:13.959Z,90.07
2022-10-11T08:53:51.846Z,89.53
2022-10-11T08:56:21.564Z,89.74
2022-10-11T08:59:01.177Z,89.44
2022-10-11T09:01:29.757Z,90.06
2022-10-11T09:04:00.094Z,89.75
2022-10-11T09:06:37.273Z,89.70
2022-10-11T09:09:28.128Z,90.00
2022-10-11T09:12:02.314Z,89.63
2022-10-11T09:14:54.586Z,89.42
2022-10-11T09:17:28.275Z,88.57
2022-10-11T09:20:03.769Z,88.17
2022-10-11T09:22:48.808Z,88.37
2022-10-11T09:25:17.322Z,87.09
2022-10-11T09:28:03.117Z,87.47
2022-10-11T09:30:30.327Z,86.96
2022-10-11T09:33:13.488Z,87.32
2022-10-11T09:35:44.381Z,86.77
2022-10-11T09:38:24.640Z,86.95
2022-10-11T09:41:03.156Z,87.45
2022-10-11T09:43:30.249Z,86.22
2022-10-11T09:45:56.745Z,86.00
2022-10-11T09:48:27.690Z,85.76
2022-10-11T09:51:02.500Z,83.48
2022-10-11T09:53:51.704Z,84.11
2022-10-11T09:56:18.302Z,84.00
2022-10-11T09:58:44.962Z,83.77
2022-10-11T10:01:21.691Z,82.24
2022-10-11T10:03:48.543Z,82.30
2022-10-11T10:06:17.651Z,80.92
2022-10-11T10:08:46.961Z,79.79
2022-10-11T10:11:14.486Z,80.21
2022-10-11T10:13:46.749Z,81.68
2022-10-11T10:16:22.671Z,82.16
2022-10-11T10:18:54.549Z,82.34
2022-10-11T10:21:29.206Z,82.04
2022-10-11T10:23:57.646Z,80.35
2022-10-11T10:26:26.524Z,81.26
2022-10-11T10:28:55.138Z,80.73
2022-10-11T10:31:24.130Z,82.83
2022-10-11T10:33:53.640Z,80.99
2022-10-11T10:36:27.475Z,81.33
2022-10-11T10:39:05.697Z,82.18
2022-10-11T10:41:32.613Z,79.37
2022-10-11T10:44:00.873Z,77.68
2022-10-11T10:46:39.434Z,78.67
2022-10-11T10:49:52.650Z,78.34
2022-10-11T10:52:13.725Z,78.61
2022-10-11T10:54:55.338Z,77.44
2022-10-11T10:57:49.053Z,76.02
2022-10-11T11:00:19.468Z,75.73
2022-10-11T11:03:06.774Z,75.77
2022-10-11T11:06:02.728Z,75.29
2022-10-11T11:08:30.328Z,75.28
2022-10-11T11:11:11.372Z,73.89
2022-10-11T11:14:04.426Z,76.50
2022-10-11T11:16:31.983Z,75.59
2022-10-11T11:19:08.418Z,77.60
2022-10-11T11:21:41.806Z,80.77
2022-10-11T11:24:44.618Z,78.31
2022-10-11T11:27:46.502Z,77.04
2022-10-11T11:30:20.305Z,76.03
2022-10-11T11:33:03.449Z,76.76
2022-10-11T11:35:38.306Z,76.36
2022-10-11T11:38:14.843Z,77.12
2022-10-11T11:40:58.799Z,75.22
2022-10-11T11:43:34.002Z,74.87
2022-10-11T11:46:09.498Z,74.21
2022-10-11T11:48:36.087Z,74.74
2022-10-11T11:51:06.769Z,73.88
2022-10-11T11:53:57.465Z,74.49
2022-10-11T11:56:40.260Z,74.13
2022-10-11T11:59:15.316Z,76.67
2022-10-11T12:01:53.522Z,74.96
2022-10-11T12:04:29.734Z,75.76
2022-10-11T12:07:16.036Z,78.46
2022-10-11T12:09:45.759Z,75.90
2022-10-11T12:12:29.713Z,76.26
2022-10-11T12:15:18.172Z,76.09
2022-10-11T12:18:17.395Z,73.53
2022-10-11T12:20:44.652Z,76.80
2022-10-11T12:23:44.617Z,75.98
2022-10-11T12:26:19.575Z,71.29
2022-10-11T12:29:01.104Z,71.92
2022-10-11T12:31:31.524Z,75.84
2022-10-11T12:34:32.466Z,71.59
2022-10-11T12:37:03.199Z,72.76
2022-10-11T12:39:52.193Z,69.20
2022-10-11T12:42:22.910Z,73.64
2022-10-11T12:45:24.593Z,68.74
2022-10-11T12:48:15.128Z,67.87
2022-10-11T12:51:11.830Z,68.83
2022-10-11T12:54:25.585Z,67.05
2022-10-11T12:57:11.883Z,66.80
2022-10-11T12:59:44.613Z,66.17
2022-10-11T13:02:35.194Z,65.77
2022-10-11T13:05:25.141Z,64.81
2022-10-11T13:07:55.516Z,65.05
2022-10-11T13:10:28.841Z,64.18
2022-10-11T13:12:59.576Z,67.54
2022-10-11T13:15:26.617Z,66.22
2022-10-11T13:17:59.546Z,65.51
2022-10-11T13:20:30.661Z,65.94
2022-10-11T13:22:58.318Z,64.51
2022-10-11T13:25:27.939Z,67.15
2022-10-11T13:27:57.365Z,65.50
2022-10-11T13:30:29.695Z,64.56
2022-10-11T13:32:57.581Z,63.62
2022-10-11T13:35:29.361Z,63.84
2022-10-11T13:37:56.405Z,65.69
2022-10-11T13:40:23.907Z,67.80
2022-10-11T13:42:52.394Z,67.96
2022-10-11T13:45:23.054Z,68.65
2022-10-11T13:47:51.998Z,69.77
2022-10-11T13:50:24.194Z,70.82
2022-10-11T13:52:56.528Z,71.37
2022-10-11T13:55:25.006Z,73.06
2022-10-11T13:57:52.431Z,72.09
2022-10-11T14:00:35.143Z,72.87
2022-10-11T14:03:18.436Z,73.13
2022-10-11T14:05:57.981Z,74.46
2022-10-11T14:08:37.820Z,72.98
2022-10-11T14:11:06.804Z,73.56
2022-10-11T14:13:46.510Z,70.39
2022-10-11T14:16:29.495Z,65.41
2022-10-11T14:19:01.055Z,67.83
2022-10-11T14:21:47.837Z,72.97
2022-10-11T14:24:14.651Z,67.63
2022-10-11T14:26:47.270Z,67.19
2022-10-11T14:29:28.892Z,65.63
2022-10-11T14:32:01.336Z,66.97
2022-10-11T14:34:28.440Z,68.28
2022-10-11T14:36:58.473Z,66.83
2022-10-11T14:39:27.768Z,65.57
2022-10-11T14:41:54.784Z,65.68
2022-10-11T14:44:22.530Z,62.81
2022-10-11T14:47:13.111Z,63.90
2022-10-11T14:49:39.789Z,64.20
2022-10-11T14:52:10.629Z,64.19
2022-10-11T14:54:37.251Z,65.94
2022-10-11T14:57:24.405Z,65.14
2022-10-11T15:03:14.392Z,64.63
2022-10-11T15:05:41.108Z,65.65
2022-10-11T15:08:07.821Z,65.92
2022-10-11T15:10:38.164Z,64.97
2022-10-11T15:13:07.170Z,65.56
2022-10-11T15:18:25.168Z,66.51
2022-10-11T15:20:56.005Z,66.85
2022-10-11T15:23:22.740Z,67.81
2022-10-11T15:25:49.419Z,68.21
2022-10-11T15:28:25.976Z,68.24
2022-10-11T15:30:52.782Z,69.42
2022-10-11T15:33:19.467Z,69.52
2022-10-11T15:35:46.113Z,69.79
2022-10-11T15:38:26.969Z,72.21
2022-10-11T15:40:54.135Z,73.28
2022-10-11T15:43:24.771Z,73.80
2022-10-11T15:45:51.927Z,74.59
2022-10-11T15:48:19.516Z,74.86
2022-10-11T15:50:46.460Z,75.49
2022-10-11T15:53:16.099Z,76.41
2022-10-11T15:55:46.678Z,76.24
2022-10-11T15:58:15.350Z,76.76
2022-10-11T16:00:43.585Z,76.87
2022-10-11T16:03:12.959Z,77.06
2022-10-11T16:05:40.551Z,76.97
2022-10-11T16:08:07.726Z,76.43
2022-10-11T16:10:34.727Z,76.90
2022-10-11T16:13:01.975Z,77.27
2022-10-11T16:15:28.737Z,77.05
2022-10-11T16:17:55.386Z,77.77
2022-10-11T16:20:24.397Z,78.49
2022-10-11T16:22:52.743Z,78.53
2022-10-11T16:25:20.639Z,78.33
2022-10-11T16:27:47.433Z,78.86
2022-10-11T16:30:16.297Z,79.09
2022-10-11T16:32:44.441Z,79.06
2022-10-11T16:35:13.365Z,79.38
2022-10-11T16:40:23.169Z,78.57
2022-10-11T16:42:49.746Z,78.76
2022-10-11T16:45:17.714Z,79.17
2022-10-11T16:47:44.779Z,78.86
2022-10-11T16:50:12.869Z,79.49
2022-10-11T16:52:39.518Z,79.69
2022-10-11T16:55:06.457Z,79.85
2022-10-11T16:57:32.984Z,79.92
2022-10-11T16:59:59.613Z,79.96
2022-10-11T17:02:32.099Z,80.23
2022-10-11T17:04:59.302Z,80.49
2022-10-11T17:07:26.497Z,80.85
2022-10-11T17:09:53.074Z,81.16
2022-10-11T17:12:23.471Z,81.25
2022-10-11T17:14:51.091Z,81.35
2022-10-11T17:17:18.729Z,81.46
2022-10-11T17:19:47.337Z,81.84
2022-10-11T17:22:19.741Z,81.95
2022-10-11T17:24:46.481Z,82.08
2022-10-11T17:27:13.351Z,82.02
2022-10-11T17:29:40.230Z,82.28
2022-10-11T17:32:07.071Z,82.72
2022-10-11T17:34:34.923Z,82.96
2022-10-11T17:37:01.614Z,82.93
2022-10-11T17:39:28.317Z,83.45
2022-10-11T17:41:54.877Z,83.19
2022-10-11T17:44:21.772Z,83.23
2022-10-11T17:46:48.683Z,83.04
2022-10-11T17:49:16.945Z,83.18
2022-10-11T17:51:44.119Z,83.32
2022-10-11T17:54:16.808Z,83.40
2022-10-11T17:56:43.573Z,83.62
2022-10-11T17:59:16.835Z,83.83
2022-10-11T18:01:43.654Z,84.00
2022-10-11T18:04:23.785Z,83.63
2022-10-11T18:06:50.392Z,83.86
2022-10-11T18:09:18.603Z,83.93
2022-10-11T18:11:45.829Z,83.81
2022-10-11T18:14:12.911Z,83.67
2022-10-11T18:16:40.808Z,83.56
2022-10-11T18:19:10.881Z,83.42
2022-10-11T18:21:38.640Z,84.06
2022-10-11T18:24:13.021Z,83.45
2022-10-11T18:26:39.878Z,83.81
2022-10-11T18:29:07.034Z,83.58
2022-10-11T18:31:35.322Z,83.97
2022-10-11T18:34:03.760Z,83.94
2022-10-11T18:36:31.251Z,84.27
2022-10-11T18:39:00.957Z,84.37
2022-10-11T18:41:30.798Z,84.45
2022-10-11T18:44:00.383Z,84.50
2022-10-11T18:46:27.915Z,84.39
2022-10-11T18:48:56.849Z,84.55
2022-10-11T18:51:26.519Z,84.31
2022-10-11T18:53:54.594Z,84.74
2022-10-11T18:56:23.879Z,84.52
2022-10-11T18:58:51.852Z,84.35
2022-10-11T19:01:22.032Z,84.59
2022-10-11T19:03:53.724Z,84.40
2022-10-11T19:06:22.992Z,84.74
2022-10-11T19:08:52.901Z,84.55
2022-10-11T19:11:24.384Z,84.42
2022-10-11T19:14:06.408Z,84.49
2022-10-11T19:16:36.119Z,84.44
2022-10-11T19:19:02.721Z,84.70
2022-10-11T19:21:30.137Z,84.67
2022-10-11T19:23:57.418Z,84.42
2022-10-11T19:26:29.799Z,84.61
2022-10-11T19:28:59.040Z,84.49
2022-10-11T19:31:26.444Z,84.66
2022-10-11T19:33:53.609Z,84.66
2022-10-11T19:36:20.412Z,84.34
2022-10-11T19:38:49.443Z,84.70
2022-10-11T19:41:19.162Z,84.65
2022-10-11T19:43:49.397Z,84.48
2022-10-11T19:46:37.851Z,84.43
2022-10-11T19:49:06.156Z,84.26
2022-10-11T19:51:35.035Z,84.67
2022-10-11T19:54:03.831Z,84.99
2022-10-11T19:56:32.340Z,84.86
2022-10-11T19:59:00.825Z,85.17
2022-10-11T20:01:30.632Z,84.89
2022-10-11T20:04:00.189Z,85.08
2022-10-11T20:06:28.708Z,84.92
2022-10-11T20:09:24.067Z,85.01
2022-10-11T20:11:43.419Z,84.64
2022-10-11T20:14:10.000Z,84.65
2022-10-11T20:16:36.802Z,85.09
2022-10-11T20:19:05.082Z,84.98
2022-10-11T20:21:33.102Z,84.80
2022-10-11T20:24:02.473Z,85.03
2022-10-11T20:26:30.521Z,84.99
2022-10-11T20:28:57.946Z,85.11
2022-10-11T20:31:29.572Z,85.35
2022-10-11T20:33:58.472Z,84.70
2022-10-11T20:36:29.590Z,84.85
2022-10-11T20:38:57.452Z,84.83
2022-10-11T20:41:52.954Z,84.98
2022-10-11T20:44:19.588Z,85.08
2022-10-11T20:46:46.245Z,84.88
2022-10-11T20:49:13.328Z,85.06
2022-10-11T20:51:41.801Z,84.75
2022-10-11T20:54:08.877Z,84.84
2022-10-11T20:56:36.478Z,85.24
2022-10-11T20:59:03.807Z,84.90
2022-10-11T21:01:55.479Z,84.79
2022-10-11T21:04:22.175Z,85.17
2022-10-11T21:06:48.959Z,84.78
2022-10-11T21:09:18.198Z,84.96
2022-10-11T21:11:45.073Z,84.72
2022-10-11T21:14:13.534Z,84.70
2022-10-11T21:16:40.154Z,84.68
2022-10-11T21:19:07.792Z,84.86
2022-10-11T21:21:34.674Z,84.99
2022-10-11T21:24:05.440Z,84.71
2022-10-11T21:26:36.826Z,84.77
2022-10-11T21:29:04.291Z,85.13
2022-10-11T21:31:34.378Z,85.01
2022-10-11T21:34:02.403Z,84.67
2022-10-11T21:36:29.082Z,84.65
2022-10-11T21:38:56.795Z,84.51
2022-10-11T21:41:25.642Z,84.78
2022-10-11T21:43:53.260Z,84.57
2022-10-11T21:46:23.760Z,84.55
2022-10-11T21:48:51.702Z,85.18
2022-10-11T21:51:43.868Z,85.06
2022-10-11T21:54:11.022Z,85.11
2022-10-11T21:56:37.747Z,85.40
2022-10-11T21:59:11.036Z,85.29
2022-10-11T22:01:40.751Z,85.19
2022-10-11T22:04:07.998Z,85.59
2022-10-11T22:06:35.715Z,85.59
2022-10-11T22:12:14.746Z,85.77
2022-10-11T22:14:39.442Z,85.80
2022-10-11T22:17:06.068Z,86.08
2022-10-11T22:19:34.991Z,85.93
2022-10-11T22:22:03.893Z,86.21
2022-10-11T22:24:30.743Z,86.03
2022-10-11T22:26:57.341Z,86.09
2022-10-11T22:29:24.121Z,86.26
2022-10-11T22:31:50.741Z,86.03
2022-10-11T22:34:19.680Z,86.17
2022-10-11T22:36:46.324Z,86.42
2022-10-11T22:39:13.077Z,85.77
2022-10-11T22:41:40.890Z,85.99
2022-10-11T22:44:07.481Z,86.04
2022-10-11T22:46:37.404Z,85.78
2022-10-11T22:49:04.192Z,85.91
2022-10-11T22:51:31.055Z,85.74
2022-10-11T22:53:57.742Z,85.77
2022-10-11T22:56:24.415Z,85.61
2022-10-11T22:58:51.216Z,85.47
2022-10-11T23:01:17.899Z,85.37
2022-10-11T23:03:49.250Z,85.69
2022-10-11T23:06:16.032Z,85.73
2022-10-11T23:08:44.304Z,85.74
2022-10-11T23:11:11.975Z,85.94
2022-10-11T23:13:38.684Z,85.84
2022-10-11T23:16:07.654Z,85.73
2022-10-11T23:18:34.348Z,85.77
2022-10-11T23:21:04.998Z,85.89
2022-10-11T23:23:31.687Z,85.86
2022-10-11T23:26:04.921Z,85.75
2022-10-11T23:28:32.189Z,85.71
2022-10-11T23:30:59.097Z,85.58
2022-10-11T23:33:25.784Z,85.38
2022-10-11T23:35:52.449Z,85.23
2022-10-11T23:38:20.183Z,85.13
2022-10-11T23:40:46.808Z,85.31
2022-10-11T23:43:13.535Z,85.22
2022-10-11T23:45:43.317Z,85.05
2022-10-11T23:48:10.200Z,84.72
2022-10-11T23:50:36.855Z,84.91
2022-10-11T23:53:03.863Z,85.40
2022-10-11T23:55:30.618Z,84.89
2022-10-11T23:57:57.381Z,85.55
